Time;durP1;ratioP1;P1;durP2;ratioP2;P2;SDS_P1;SDS_P2;PMS_P1;PMS_P2;Temp;Humidity;BMP_temperature;BMP_pressure;BME280_temperature;BME280_humidity;BME280_pressure;Samples;Min_cycle;Max_cycle;Signal;HPM_P1;HPM_P2
2022/09/18 00:00:38;;;;;;;9.65;2.10;;;11.50;99.90;;;;;;5013769;28;20030;-51
2022/09/18 00:03:04;;;;;;;4.25;2.00;;;11.60;99.90;;;;;;5013684;28;20065;-53
2022/09/18 00:05:29;;;;;;;3.22;1.55;;;11.60;99.90;;;;;;5028824;28;20456;-51
2022/09/18 00:07:55;;;;;;;5.68;1.90;;;11.40;99.90;;;;;;5013666;28;20064;-52
2022/09/18 00:10:20;;;;;;;9.00;3.00;;;11.40;99.90;;;;;;5013452;28;20113;-49
2022/09/18 00:12:46;;;;;;;3.17;1.42;;;11.40;99.90;;;;;;5028507;28;20397;-52
2022/09/18 00:15:11;;;;;;;4.75;1.65;;;11.30;99.90;;;;;;5013543;28;20080;-50
2022/09/18 00:17:37;;;;;;;4.15;1.63;;;11.30;99.90;;;;;;5012086;28;20048;-49
2022/09/18 00:20:03;;;;;;;5.18;1.77;;;11.40;99.90;;;;;;5013203;28;20026;-52
2022/09/18 00:22:29;;;;;;;7.32;1.80;;;11.30;99.90;;;;;;5028217;28;20033;-52
2022/09/18 00:24:54;;;;;;;5.50;1.55;;;11.30;99.90;;;;;;5013674;28;20033;-48
2022/09/18 00:27:20;;;;;;;7.32;2.10;;;11.20;99.90;;;;;;5013497;28;20026;-50
2022/09/18 00:29:45;;;;;;;7.03;1.77;;;11.30;99.90;;;;;;5013391;28;20069;-47
2022/09/18 00:32:11;;;;;;;6.72;1.77;;;11.30;99.90;;;;;;5013004;28;20045;-47
2022/09/18 00:34:38;;;;;;;2.65;1.48;;;11.40;99.90;;;;;;5013075;28;20030;-50
2022/09/18 00:37:04;;;;;;;4.35;1.40;;;11.40;99.90;;;;;;5013162;28;20017;-49
2022/09/18 00:39:29;;;;;;;7.47;1.40;;;11.40;99.90;;;;;;5013029;28;20504;-47
2022/09/18 00:41:54;;;;;;;4.80;1.60;;;11.50;99.90;;;;;;5011712;28;20030;-48
2022/09/18 00:44:23;;;;;;;3.80;1.80;;;11.60;99.90;;;;;;5012923;28;20092;-48
2022/09/18 00:46:49;;;;;;;8.27;1.70;;;11.50;99.90;;;;;;5012516;28;20030;-48
2022/09/18 00:49:22;;;;;;;4.40;1.40;;;11.50;99.90;;;;;;5012887;28;20101;-47
2022/09/18 00:51:52;;;;;;;4.65;1.40;;;11.50;99.90;;;;;;5012800;28;20026;-48
2022/09/18 00:54:36;;;;;;;5.30;1.73;;;11.50;99.90;;;;;;5012846;28;20029;-50
2022/09/18 00:57:13;;;;;;;7.25;1.55;;;11.50;99.90;;;;;;5012993;28;20037;-51
2022/09/18 00:59:43;;;;;;;4.05;1.00;;;11.50;99.90;;;;;;5027724;28;20018;-48
2022/09/18 01:02:08;;;;;;;5.80;1.75;;;11.60;99.90;;;;;;5011235;28;20100;-53
2022/09/18 01:04:34;;;;;;;6.18;1.48;;;11.60;99.90;;;;;;5012563;28;20477;-49
2022/09/18 01:07:08;;;;;;;6.22;1.63;;;11.60;99.90;;;;;;5027786;28;20021;-48
2022/09/18 01:10:01;;;;;;;3.65;1.33;;;11.60;99.90;;;;;;5012547;28;20026;-48
2022/09/18 01:12:38;;;;;;;6.95;1.27;;;11.60;99.90;;;;;;5012092;28;20052;-54
2022/09/18 01:15:18;;;;;;;9.10;1.70;;;11.70;99.90;;;;;;5012397;28;20026;-48
2022/09/18 01:17:48;;;;;;;5.15;1.55;;;11.70;99.90;;;;;;5011935;28;20022;-49
2022/09/18 01:20:33;;;;;;;7.60;1.48;;;11.60;99.90;;;;;;5012470;28;20033;-48
2022/09/18 01:23:32;;;;;;;2.53;1.00;;;11.60;99.90;;;;;;5012163;28;20022;-50
2022/09/18 01:26:19;;;;;;;1.63;1.17;;;11.60;99.90;;;;;;5010993;28;20033;-49
2022/09/18 01:29:01;;;;;;;5.53;1.50;;;11.60;99.90;;;;;;5010786;28;20120;-49
2022/09/18 01:31:30;;;;;;;3.75;1.20;;;11.70;99.90;;;;;;5010900;28;20409;-50
2022/09/18 01:34:37;;;;;;;5.63;1.17;;;11.60;99.90;;;;;;5011731;28;20493;-51
2022/09/18 01:37:12;;;;;;;3.42;1.20;;;11.70;99.90;;;;;;5006782;28;20088;-48
2022/09/18 01:39:46;;;;;;;2.55;1.30;;;11.60;99.90;;;;;;5011139;28;20421;-52
2022/09/18 01:42:13;;;;;;;2.17;0.98;;;11.60;99.90;;;;;;5012231;28;20026;-49
2022/09/18 01:44:41;;;;;;;3.33;1.02;;;11.70;99.90;;;;;;5010648;28;20132;-47
2022/09/18 01:47:12;;;;;;;2.60;1.40;;;11.70;99.90;;;;;;5012082;28;20076;-50
2022/09/18 01:49:42;;;;;;;1.40;0.90;;;11.70;99.90;;;;;;5012084;28;20030;-48
2022/09/18 01:52:15;;;;;;;3.58;1.33;;;11.80;99.90;;;;;;5011522;28;20022;-50
2022/09/18 01:54:43;;;;;;;5.43;1.15;;;11.80;99.90;;;;;;5011754;28;20563;-47
2022/09/18 01:57:15;;;;;;;2.67;0.80;;;11.80;99.90;;;;;;5011743;28;20030;-49
2022/09/18 02:00:05;;;;;;;1.42;1.10;;;11.90;99.90;;;;;;5011535;28;20397;-51
2022/09/18 02:02:51;;;;;;;3.88;1.30;;;11.90;99.90;;;;;;5011431;28;20105;-52
2022/09/18 02:05:22;;;;;;;;;;;11.80;99.90;;;;;;5012269;28;20041;-47
2022/09/18 02:08:02;;;;;;;6.68;1.55;;;11.90;99.90;;;;;;5011641;28;19905;-48
2022/09/18 02:10:31;;;;;;;2.50;1.30;;;11.80;99.90;;;;;;5011984;28;20037;-47
2022/09/18 02:13:01;;;;;;;1.23;1.00;;;11.90;99.90;;;;;;5011316;28;20034;-48
2022/09/18 02:15:31;;;;;;;1.90;0.85;;;11.80;99.90;;;;;;5011766;28;20041;-50
2022/09/18 02:18:01;;;;;;;1.77;0.88;;;11.90;99.90;;;;;;5011289;28;20022;-51
2022/09/18 02:20:29;;;;;;;2.35;0.82;;;11.90;99.90;;;;;;5011447;28;20018;-50
2022/09/18 02:23:06;;;;;;;5.43;2.00;;;11.90;99.90;;;;;;5011361;28;20113;-50
2022/09/18 02:25:42;;;;;;;2.83;0.90;;;11.90;99.90;;;;;;5010435;28;20030;-51
2022/09/18 02:28:09;;;;;;;6.95;1.20;;;11.80;99.90;;;;;;5011499;28;20079;-49
2022/09/18 02:30:38;;;;;;;4.88;1.85;;;11.80;99.90;;;;;;5011397;28;20026;-50
2022/09/18 02:33:07;;;;;;;2.78;1.05;;;11.80;99.90;;;;;;5026126;28;20040;-49
2022/09/18 02:35:42;;;;;;;4.70;1.40;;;11.80;99.90;;;;;;5011369;28;20108;-50
2022/09/18 02:38:29;;;;;;;0.80;0.80;;;11.80;99.90;;;;;;5011499;28;20021;-47
2022/09/18 02:41:18;;;;;;;0.80;0.75;;;11.80;99.90;;;;;;5011375;28;20160;-54
2022/09/18 02:44:00;;;;;;;1.58;0.75;;;11.80;99.90;;;;;;5010876;28;20033;-52
2022/09/18 02:46:53;;;;;;;1.55;0.82;;;11.80;99.90;;;;;;5011394;28;20033;-51
2022/09/18 02:49:57;;;;;;;3.10;1.10;;;11.80;99.90;;;;;;5011293;28;20030;-52
2022/09/18 02:52:28;;;;;;;3.70;1.10;;;11.80;99.90;;;;;;5011000;28;20037;-52
2022/09/18 02:54:58;;;;;;;1.67;0.90;;;11.80;99.90;;;;;;5026709;28;20421;-50
2022/09/18 02:57:59;;;;;;;2.80;0.77;;;11.90;99.90;;;;;;5011279;28;20409;-50
2022/09/18 03:00:27;;;;;;;1.63;1.00;;;11.90;99.90;;;;;;5008158;28;20082;-47
2022/09/18 03:02:57;;;;;;;2.33;0.77;;;11.90;99.90;;;;;;5010964;28;20030;-50
2022/09/18 03:05:23;;;;;;;1.40;1.10;;;11.80;99.90;;;;;;5011131;28;20026;-52
2022/09/18 03:07:49;;;;;;;2.88;0.90;;;11.80;99.90;;;;;;5011308;28;20170;-48
2022/09/18 03:10:14;;;;;;;1.50;0.90;;;11.80;99.90;;;;;;5014123;28;20104;-53
2022/09/18 03:12:40;;;;;;;1.95;1.02;;;11.90;99.90;;;;;;5014396;28;20477;-50
2022/09/18 03:15:06;;;;;;;5.05;1.55;;;11.80;99.90;;;;;;5014537;28;20030;-51
2022/09/18 03:17:31;;;;;;;5.03;0.98;;;11.70;99.90;;;;;;5014073;28;20484;-49
2022/09/18 03:19:57;;;;;;;7.43;1.10;;;11.70;99.90;;;;;;5014453;28;20030;-48
2022/09/18 03:22:22;;;;;;;3.67;0.80;;;11.80;99.90;;;;;;5014123;28;20026;-46
2022/09/18 03:24:48;;;;;;;0.85;0.73;;;11.70;99.90;;;;;;5014512;28;20018;-47
2022/09/18 03:27:16;;;;;;;2.22;1.10;;;11.80;99.90;;;;;;5014366;28;20105;-50
2022/09/18 03:29:42;;;;;;;4.00;0.95;;;11.70;99.90;;;;;;5014393;28;20030;-50
2022/09/18 03:32:08;;;;;;;0.90;0.75;;;11.70;99.90;;;;;;5014445;28;20053;-51
2022/09/18 03:34:34;;;;;;;1.80;0.70;;;11.70;99.90;;;;;;5014696;28;20022;-52
2022/09/18 03:36:59;;;;;;;4.45;1.00;;;11.70;99.90;;;;;;5014175;28;20548;-50
2022/09/18 03:39:25;;;;;;;7.15;1.48;;;11.70;99.90;;;;;;5014253;28;20389;-52
2022/09/18 03:41:50;;;;;;;3.70;0.80;;;11.80;99.90;;;;;;5014244;28;20105;-48
2022/09/18 03:44:16;;;;;;;3.40;1.67;;;11.80;99.90;;;;;;5014088;28;20042;-51
2022/09/18 03:46:41;;;;;;;1.35;0.90;;;11.80;99.90;;;;;;5013988;28;20045;-48
2022/09/18 03:49:07;;;;;;;2.97;1.20;;;11.80;99.90;;;;;;5013926;28;20505;-48
2022/09/18 03:51:33;;;;;;;3.63;0.65;;;11.80;99.90;;;;;;5013646;28;20053;-48
2022/09/18 03:53:58;;;;;;;1.35;0.80;;;11.80;99.90;;;;;;5013475;28;20076;-52
2022/09/18 03:56:24;;;;;;;1.20;0.70;;;11.80;99.90;;;;;;5013758;28;20393;-48
2022/09/18 03:58:49;;;;;;;3.45;0.77;;;11.70;99.90;;;;;;5013611;28;20022;-50
2022/09/18 04:01:15;;;;;;;2.95;0.80;;;11.80;99.90;;;;;;5013802;28;20386;-50
2022/09/18 04:03:40;;;;;;;2.20;1.25;;;11.80;99.90;;;;;;5013393;28;20121;-50
2022/09/18 04:06:06;;;;;;;2.05;0.60;;;11.80;99.90;;;;;;5013592;28;20064;-50
2022/09/18 04:08:33;;;;;;;2.10;0.95;;;11.80;99.90;;;;;;5013809;28;20022;-48
2022/09/18 04:10:58;;;;;;;0.95;0.55;;;11.80;99.90;;;;;;5013638;28;20069;-50
2022/09/18 04:13:24;;;;;;;5.38;0.88;;;11.80;99.90;;;;;;5013059;28;20049;-50
2022/09/18 04:15:49;;;;;;;3.30;0.95;;;11.90;99.90;;;;;;5013362;28;20482;-49
2022/09/18 04:18:18;;;;;;;2.78;0.77;;;11.90;99.90;;;;;;5013080;28;20073;-48
2022/09/18 04:20:44;;;;;;;0.70;0.57;;;11.90;99.90;;;;;;5012409;28;20026;-53
2022/09/18 04:23:13;;;;;;;2.33;0.88;;;11.90;99.90;;;;;;5012953;28;20494;-48
2022/09/18 04:25:41;;;;;;;5.97;0.93;;;11.80;99.90;;;;;;5013654;28;20545;-50
2022/09/18 04:28:07;;;;;;;2.05;0.70;;;11.80;99.90;;;;;;5013268;28;20026;-52
2022/09/18 04:30:32;;;;;;;3.10;1.38;;;11.90;99.90;;;;;;5013103;28;20405;-51
2022/09/18 04:32:58;;;;;;;1.65;0.60;;;11.90;99.90;;;;;;5012857;28;20029;-49
2022/09/18 04:35:24;;;;;;;2.85;0.55;;;11.80;99.90;;;;;;5013226;28;20096;-48
2022/09/18 04:37:49;;;;;;;1.23;0.70;;;11.80;99.90;;;;;;5013162;28;20022;-49
2022/09/18 04:40:15;;;;;;;0.80;0.50;;;11.80;99.90;;;;;;5012979;28;20036;-51
2022/09/18 04:42:40;;;;;;;1.35;0.50;;;11.90;99.90;;;;;;5012795;28;20026;-46
2022/09/18 04:45:07;;;;;;;1.75;0.73;;;11.80;99.90;;;;;;5012591;28;20041;-51
2022/09/18 04:47:33;;;;;;;0.98;0.60;;;11.80;99.90;;;;;;5013040;28;20366;-49
2022/09/18 04:49:58;;;;;;;4.32;0.77;;;11.80;99.90;;;;;;5013020;28;20037;-51
2022/09/18 04:52:24;;;;;;;2.10;0.60;;;11.80;99.90;;;;;;5012518;28;20049;-49
2022/09/18 04:54:49;;;;;;;3.70;0.73;;;11.80;99.90;;;;;;5012770;28;20452;-53
2022/09/18 04:57:15;;;;;;;5.75;1.30;;;11.80;99.90;;;;;;5012758;28;20026;-49
2022/09/18 04:59:40;;;;;;;1.17;0.68;;;11.80;99.90;;;;;;5013079;28;20022;-51
2022/09/18 05:02:06;;;;;;;1.05;0.50;;;11.80;99.90;;;;;;5012315;28;20469;-52
2022/09/18 05:04:31;;;;;;;3.80;0.60;;;11.80;99.90;;;;;;5012588;28;20029;-52
2022/09/18 05:06:56;;;;;;;2.97;0.60;;;11.80;99.90;;;;;;5012624;28;20552;-50
2022/09/18 05:09:22;;;;;;;4.57;0.85;;;11.80;99.90;;;;;;5012432;28;20029;-53
2022/09/18 05:11:48;;;;;;;1.27;0.73;;;11.90;99.90;;;;;;5012316;28;20057;-48
2022/09/18 05:14:13;;;;;;;0.77;0.60;;;11.90;99.90;;;;;;5012188;28;20048;-50
2022/09/18 05:16:39;;;;;;;1.08;0.50;;;11.90;99.90;;;;;;5012318;28;20026;-51
2022/09/18 05:19:04;;;;;;;2.22;0.80;;;11.80;99.90;;;;;;5012380;28;20033;-53
2022/09/18 05:21:30;;;;;;;2.75;0.80;;;11.80;99.90;;;;;;5012573;28;20109;-51
2022/09/18 05:23:55;;;;;;;1.52;0.63;;;11.80;99.90;;;;;;5012107;28;20087;-50
2022/09/18 05:26:21;;;;;;;2.10;0.60;;;11.80;99.90;;;;;;5012290;28;20029;-52
2022/09/18 05:28:49;;;;;;;0.98;0.75;;;11.80;99.90;;;;;;5012103;28;20466;-51
2022/09/18 05:31:15;;;;;;;2.38;0.70;;;11.80;99.90;;;;;;5012086;28;20669;-47
2022/09/18 05:33:41;;;;;;;3.65;0.65;;;11.90;99.90;;;;;;5011755;28;20406;-50
2022/09/18 05:36:07;;;;;;;1.35;0.47;;;11.90;99.90;;;;;;5012706;28;20049;-48
2022/09/18 05:38:32;;;;;;;0.70;0.70;;;11.80;99.90;;;;;;5013458;28;20026;-53
2022/09/18 05:40:59;;;;;;;1.27;0.63;;;11.80;99.90;;;;;;5012652;28;20018;-49
2022/09/18 05:43:25;;;;;;;1.50;0.60;;;11.70;99.90;;;;;;5011701;28;20057;-46
2022/09/18 05:45:50;;;;;;;1.10;0.55;;;11.70;99.90;;;;;;5036907;22;20084;-48
2022/09/18 05:48:16;;;;;;;0.60;0.60;;;11.80;99.90;;;;;;5015057;28;20094;-53
2022/09/18 05:50:42;;;;;;;0.80;0.50;;;11.80;99.90;;;;;;5015012;28;20053;-52
2022/09/18 05:53:14;;;;;;;0.75;0.70;;;11.80;99.90;;;;;;5014416;28;20105;-48
2022/09/18 05:55:40;;;;;;;1.23;0.50;;;11.80;99.90;;;;;;5012990;28;20123;-50
2022/09/18 05:58:10;;;;;;;3.83;0.70;;;11.80;99.90;;;;;;5030184;28;20518;-50
2022/09/18 06:00:36;;;;;;;1.00;0.75;;;11.90;99.90;;;;;;5013068;28;20367;-54
2022/09/18 06:03:09;;;;;;;1.40;0.55;;;11.90;99.90;;;;;;5017178;28;20115;-53
2022/09/18 06:05:36;;;;;;;1.00;0.60;;;11.90;99.90;;;;;;5018313;28;20025;-55
2022/09/18 06:08:05;;;;;;;1.80;0.52;;;11.80;99.90;;;;;;5018227;28;20030;-50
2022/09/18 06:10:33;;;;;;;0.77;0.60;;;11.80;99.90;;;;;;5018090;28;20037;-52
2022/09/18 06:13:05;;;;;;;1.30;0.63;;;11.80;99.90;;;;;;5018400;28;20022;-50
2022/09/18 06:15:32;;;;;;;0.85;0.50;;;11.80;99.90;;;;;;5018285;28;20026;-51
2022/09/18 06:17:58;;;;;;;3.20;0.63;;;11.80;99.90;;;;;;5017623;28;20108;-52
2022/09/18 06:20:24;;;;;;;0.52;0.52;;;11.90;99.90;;;;;;5016893;28;20022;-53
2022/09/18 06:22:49;;;;;;;1.10;0.70;;;11.80;99.90;;;;;;5017467;28;20030;-53
2022/09/18 06:25:18;;;;;;;0.50;0.50;;;11.80;99.90;;;;;;5032990;28;20046;-52
2022/09/18 06:27:44;;;;;;;0.85;0.68;;;11.80;99.90;;;;;;5016906;28;20105;-50
2022/09/18 06:30:10;;;;;;;1.63;0.80;;;11.80;99.90;;;;;;5018242;28;20068;-48
2022/09/18 06:32:35;;;;;;;0.75;0.60;;;11.80;99.90;;;;;;5017403;28;20034;-50
2022/09/18 06:35:01;;;;;;;1.88;0.52;;;11.80;99.90;;;;;;5017585;28;20029;-51
2022/09/18 06:37:26;;;;;;;0.95;0.55;;;11.80;99.90;;;;;;5019011;28;20026;-54
2022/09/18 06:39:52;;;;;;;2.22;0.60;;;11.80;99.90;;;;;;5017170;28;20022;-49
2022/09/18 06:42:17;;;;;;;4.68;0.80;;;11.80;99.90;;;;;;5032944;28;20030;-52
2022/09/18 06:44:43;;;;;;;0.63;0.55;;;11.90;99.90;;;;;;5019270;28;20044;-53
2022/09/18 06:47:08;;;;;;;1.05;0.50;;;11.80;99.90;;;;;;5036617;28;20026;-46
2022/09/18 06:49:34;;;;;;;1.30;0.40;;;11.90;99.90;;;;;;5021403;28;20040;-50
2022/09/18 06:51:59;;;;;;;0.43;0.40;;;11.90;99.90;;;;;;5019138;28;20030;-55
2022/09/18 06:54:25;;;;;;;0.47;0.43;;;12.00;99.90;;;;;;5020135;28;20101;-48
2022/09/18 06:56:51;;;;;;;0.80;0.40;;;12.00;99.90;;;;;;5021875;28;20026;-51
2022/09/18 06:59:16;;;;;;;1.88;0.40;;;12.00;99.90;;;;;;5020780;28;20014;-50
2022/09/18 07:01:42;;;;;;;0.45;0.30;;;12.00;99.90;;;;;;5020407;28;20030;-51
2022/09/18 07:04:07;;;;;;;0.30;0.30;;;12.10;99.90;;;;;;5035259;28;20022;-49
2022/09/18 07:06:33;;;;;;;1.67;0.40;;;12.10;99.90;;;;;;5020183;28;20037;-46
2022/09/18 07:08:58;;;;;;;2.45;0.50;;;12.00;99.90;;;;;;5020736;28;20097;-53
2022/09/18 07:11:24;;;;;;;2.33;0.40;;;12.10;99.90;;;;;;5020101;28;20107;-48
2022/09/18 07:13:50;;;;;;;0.38;0.38;;;12.00;99.90;;;;;;5036434;28;20030;-49
2022/09/18 07:16:16;;;;;;;0.30;0.30;;;12.10;99.90;;;;;;5021798;28;20048;-48
2022/09/18 07:18:42;;;;;;;0.50;0.50;;;12.20;99.90;;;;;;5020121;28;20038;-50
2022/09/18 07:21:07;;;;;;;0.40;0.40;;;12.20;99.90;;;;;;5021278;28;20022;-50
2022/09/18 07:23:34;;;;;;;0.73;0.40;;;12.10;99.90;;;;;;5022842;28;20032;-54
2022/09/18 07:26:01;;;;;;;0.68;0.50;;;12.10;99.90;;;;;;5039718;28;20029;-45
2022/09/18 07:28:27;;;;;;;0.90;0.50;;;12.20;99.90;;;;;;5021119;28;20040;-49
2022/09/18 07:30:53;;;;;;;3.30;0.40;;;12.20;99.90;;;;;;5015050;28;20026;-50
2022/09/18 07:33:20;;;;;;;0.30;0.30;;;12.30;99.90;;;;;;5016138;28;20033;-49
2022/09/18 07:35:46;;;;;;;1.38;0.40;;;12.30;99.90;;;;;;5014353;28;20029;-52
2022/09/18 07:38:11;;;;;;;1.83;0.47;;;12.30;99.90;;;;;;5014449;28;20033;-51
2022/09/18 07:40:37;;;;;;;0.40;0.40;;;12.30;99.90;;;;;;5014256;28;20535;-52
2022/09/18 07:43:07;;;;;;;0.40;0.40;;;12.40;99.90;;;;;;5014022;28;20058;-52
2022/09/18 07:45:34;;;;;;;0.70;0.32;;;12.40;99.90;;;;;;5014800;28;20034;-48
2022/09/18 07:48:01;;;;;;;0.50;0.40;;;12.50;99.90;;;;;;5015681;28;20026;-51
2022/09/18 07:50:27;;;;;;;1.20;0.50;;;12.50;99.90;;;;;;5018873;28;20593;-49
2022/09/18 07:52:55;;;;;;;1.55;0.77;;;12.50;99.90;;;;;;5023673;28;20034;-53
2022/09/18 07:55:23;;;;;;;1.40;0.52;;;12.60;99.90;;;;;;5022471;28;20284;-52
2022/09/18 07:57:54;;;;;;;1.92;0.40;;;12.70;99.90;;;;;;5022742;28;20309;-51
2022/09/18 08:00:20;;;;;;;1.85;1.02;;;12.80;99.90;;;;;;5016713;28;20443;-53
2022/09/18 08:02:45;;;;;;;0.30;0.30;;;12.90;99.90;;;;;;5013793;28;20026;-48
2022/09/18 08:05:11;;;;;;;0.88;0.35;;;12.90;99.90;;;;;;5014031;28;20036;-52
2022/09/18 08:07:36;;;;;;;1.05;0.90;;;12.90;99.90;;;;;;5014589;28;20234;-49
2022/09/18 08:10:03;;;;;;;0.47;0.47;;;12.90;99.90;;;;;;5015689;28;20034;-47
2022/09/18 08:12:30;;;;;;;1.02;0.30;;;13.00;99.90;;;;;;5016629;28;20085;-48
2022/09/18 08:14:56;;;;;;;0.75;0.40;;;13.00;99.90;;;;;;5016168;28;20062;-54
2022/09/18 08:17:22;;;;;;;1.33;0.50;;;13.00;99.90;;;;;;5014668;28;20486;-48
2022/09/18 08:19:47;;;;;;;0.40;0.40;;;13.10;99.90;;;;;;5015365;28;20078;-53
2022/09/18 08:22:13;;;;;;;1.20;0.43;;;13.30;99.90;;;;;;5014167;28;20508;-46
2022/09/18 08:24:38;;;;;;;1.42;0.45;;;13.30;99.90;;;;;;5014202;28;20040;-44
2022/09/18 08:27:04;;;;;;;0.40;0.40;;;13.40;99.90;;;;;;5014918;28;20025;-48
2022/09/18 08:29:30;;;;;;;2.28;0.90;;;13.40;99.90;;;;;;5014890;28;20018;-46
2022/09/18 08:31:55;;;;;;;0.38;0.30;;;13.50;99.90;;;;;;5014165;28;20041;-48
2022/09/18 08:34:21;;;;;;;0.50;0.50;;;13.40;99.90;;;;;;5013566;28;20113;-48
2022/09/18 08:36:47;;;;;;;1.42;0.47;;;13.50;99.90;;;;;;5015798;28;20030;-46
2022/09/18 08:39:13;;;;;;;0.70;0.60;;;13.50;99.90;;;;;;5015374;28;20036;-48
2022/09/18 08:41:41;;;;;;;1.40;0.70;;;13.50;99.90;;;;;;5015667;28;20093;-44
2022/09/18 08:44:15;;;;;;;1.45;0.68;;;13.40;99.90;;;;;;5015481;28;20022;-45
2022/09/18 08:46:49;;;;;;;2.22;0.73;;;13.50;99.90;;;;;;5017090;28;20034;-43
2022/09/18 08:49:43;;;;;;;5.53;1.42;;;13.40;99.90;;;;;;5031494;28;20058;-47
2022/09/18 08:52:13;;;;;;;2.60;0.70;;;13.50;99.90;;;;;;5015793;28;20371;-46
2022/09/18 08:54:57;;;;;;;1.05;0.98;;;13.40;99.90;;;;;;5016968;28;20485;-45
2022/09/18 08:57:25;;;;;;;1.40;1.30;;;13.40;99.90;;;;;;5016029;28;20080;-45
2022/09/18 08:59:58;;;;;;;2.70;1.00;;;13.40;99.90;;;;;;5015034;28;20456;-48
2022/09/18 09:02:36;;;;;;;2.80;1.20;;;13.40;99.90;;;;;;5013999;28;20450;-49
2022/09/18 09:05:09;;;;;;;6.32;1.50;;;13.50;99.90;;;;;;5005737;28;20491;-52
2022/09/18 09:08:04;;;;;;;1.27;1.08;;;13.40;99.90;;;;;;5014613;28;20026;-49
2022/09/18 09:10:40;;;;;;;6.38;1.30;;;13.40;99.90;;;;;;5014165;28;20025;-48
2022/09/18 09:13:33;;;;;;;5.82;1.30;;;13.40;99.90;;;;;;5012272;28;20062;-49
2022/09/18 09:16:11;;;;;;;2.28;1.02;;;13.50;99.90;;;;;;5012650;28;20398;-50
2022/09/18 09:18:45;;;;;;;4.47;1.20;;;13.50;99.90;;;;;;5012292;28;20029;-46
2022/09/18 09:21:22;;;;;;;2.05;1.60;;;13.50;99.90;;;;;;5013087;28;20104;-51
2022/09/18 09:24:12;;;;;;;3.75;1.20;;;13.60;99.90;;;;;;5011777;28;20502;-47
2022/09/18 09:26:39;;;;;;;3.17;1.38;;;13.70;99.90;;;;;;5011013;28;20036;-52
2022/09/18 09:29:22;;;;;;;3.70;1.50;;;13.80;99.90;;;;;;5012562;28;20029;-50
2022/09/18 09:31:55;;;;;;;5.32;1.02;;;13.80;99.90;;;;;;5013344;28;20053;-45
2022/09/18 09:34:43;;;;;;;1.98;1.50;;;13.90;99.90;;;;;;5012566;28;20116;-49
2022/09/18 09:37:19;;;;;;;3.55;1.33;;;14.00;99.90;;;;;;5013596;28;20515;-53
2022/09/18 09:39:50;;;;;;;3.33;1.27;;;14.00;99.90;;;;;;5014600;28;20030;-46
2022/09/18 09:42:44;;;;;;;3.97;1.27;;;14.00;99.90;;;;;;5011622;28;20029;-46
2022/09/18 09:45:46;;;;;;;3.53;1.25;;;14.10;99.90;;;;;;5004745;28;20054;-52
2022/09/18 09:48:34;;;;;;;2.15;0.77;;;14.20;99.90;;;;;;4992369;28;20046;-51
2022/09/18 09:51:26;;;;;;;3.60;1.73;;;14.20;99.90;;;;;;5013206;28;20026;-47
2022/09/18 09:53:54;;;;;;;2.50;1.30;;;14.10;99.90;;;;;;5012448;28;20022;-54
2022/09/18 09:56:50;;;;;;;2.72;0.95;;;14.20;99.90;;;;;;5012855;28;20026;-46
2022/09/18 09:59:49;;;;;;;3.90;1.40;;;14.20;99.90;;;;;;5011349;28;20030;-45
2022/09/18 10:02:18;;;;;;;3.03;1.50;;;14.20;99.90;;;;;;5012248;28;20401;-49
2022/09/18 10:04:51;;;;;;;2.80;1.40;;;14.30;99.90;;;;;;4993703;28;20092;-49
2022/09/18 10:07:48;;;;;;;6.10;1.08;;;14.30;99.90;;;;;;4993334;28;20122;-48
2022/09/18 10:10:28;;;;;;;2.63;1.10;;;14.20;99.90;;;;;;4984286;28;20038;-52
2022/09/18 10:13:00;;;;;;;6.20;2.28;;;14.30;99.90;;;;;;4992219;28;20053;-52
2022/09/18 10:15:37;;;;;;;3.55;1.15;;;14.30;99.90;;;;;;4992201;28;20105;-53
2022/09/18 10:18:06;;;;;;;4.00;0.90;;;14.40;99.90;;;;;;4993728;28;20026;-51
2022/09/18 10:20:34;;;;;;;5.30;0.98;;;14.50;99.90;;;;;;5001936;28;20026;-51
2022/09/18 10:23:48;;;;;;;2.40;0.70;;;14.50;99.90;;;;;;5015822;28;20026;-50
2022/09/18 10:26:19;;;;;;;4.47;1.20;;;14.50;99.90;;;;;;5014003;28;20065;-54
2022/09/18 10:28:45;;;;;;;1.38;0.90;;;14.50;99.90;;;;;;5015916;28;20462;-46
2022/09/18 10:31:17;;;;;;;2.55;1.48;;;14.60;99.90;;;;;;5015815;28;20025;-52
2022/09/18 10:33:48;;;;;;;2.72;0.98;;;14.60;99.90;;;;;;5015932;28;20048;-48
2022/09/18 10:36:24;;;;;;;3.50;0.95;;;14.70;99.90;;;;;;5016595;28;20018;-51
2022/09/18 10:38:50;;;;;;;4.00;0.88;;;14.70;99.90;;;;;;5015310;28;20097;-51
2022/09/18 10:41:30;;;;;;;2.78;0.80;;;14.70;99.90;;;;;;5016623;28;20072;-49
2022/09/18 10:44:04;;;;;;;1.85;0.65;;;14.70;99.90;;;;;;5015562;28;20037;-51
2022/09/18 10:46:34;;;;;;;1.40;0.90;;;14.80;99.90;;;;;;5016058;28;20033;-51
2022/09/18 10:49:30;;;;;;;4.07;1.10;;;14.70;99.90;;;;;;5015144;28;20052;-54
2022/09/18 10:52:15;;;;;;;;;;;14.80;99.90;;;;;;5017581;28;20037;-45
2022/09/18 10:55:08;;;;;;;3.00;0.95;;;14.70;99.90;;;;;;5016785;28;19905;-47
2022/09/18 10:57:39;;;;;;;2.72;1.25;;;14.70;99.90;;;;;;5009365;28;20030;-54
2022/09/18 11:00:25;;;;;;;2.28;1.63;;;14.70;99.90;;;;;;5016422;28;20034;-49
2022/09/18 11:02:58;;;;;;;1.55;1.17;;;14.80;99.90;;;;;;5015978;28;20105;-49
2022/09/18 11:05:31;;;;;;;8.07;1.17;;;14.70;99.90;;;;;;5017083;28;20026;-51
2022/09/18 11:08:00;;;;;;;0.98;0.80;;;14.70;99.90;;;;;;5016634;28;20056;-53
2022/09/18 11:10:28;;;;;;;2.47;1.20;;;14.70;99.90;;;;;;5016629;28;20029;-50
2022/09/18 11:12:56;;;;;;;2.40;0.90;;;14.70;99.90;;;;;;5016405;28;20119;-50
2022/09/18 11:15:26;;;;;;;2.28;1.23;;;14.70;99.90;;;;;;5014543;28;20405;-51
2022/09/18 11:17:54;;;;;;;2.90;1.02;;;14.80;99.90;;;;;;5015332;28;20494;-51
2022/09/18 11:20:25;;;;;;;2.38;1.10;;;14.70;99.90;;;;;;5015762;28;20025;-52
2022/09/18 11:22:51;;;;;;;4.65;1.10;;;14.70;99.90;;;;;;4999077;28;20061;-47
2022/09/18 11:25:23;;;;;;;6.50;1.50;;;14.70;99.90;;;;;;5016013;28;20037;-44
2022/09/18 11:27:57;;;;;;;3.97;0.93;;;14.80;99.90;;;;;;5014369;28;20060;-47
2022/09/18 11:30:29;;;;;;;2.58;0.82;;;14.70;99.90;;;;;;5014272;28;20029;-47
2022/09/18 11:33:05;;;;;;;5.15;0.93;;;14.70;99.90;;;;;;5014852;28;20037;-47
2022/09/18 11:35:31;;;;;;;3.65;1.20;;;14.60;99.90;;;;;;5014165;28;20034;-47
2022/09/18 11:38:05;;;;;;;2.55;1.15;;;14.50;99.90;;;;;;5014009;28;20441;-45
2022/09/18 11:40:41;;;;;;;1.00;0.90;;;14.40;99.90;;;;;;5014545;28;20426;-47
2022/09/18 11:43:21;;;;;;;2.97;1.20;;;14.40;99.90;;;;;;5014341;28;20033;-46
2022/09/18 11:46:20;;;;;;;5.32;1.90;;;14.40;99.90;;;;;;5014318;28;20041;-50
2022/09/18 11:48:57;;;;;;;2.95;1.02;;;14.30;99.90;;;;;;5014401;28;20026;-50
2022/09/18 11:51:32;;;;;;;4.93;1.10;;;14.30;99.90;;;;;;5014762;28;20026;-49
2022/09/18 11:54:05;;;;;;;1.90;1.25;;;14.30;99.90;;;;;;5014184;28;20029;-49
2022/09/18 11:56:44;;;;;;;4.28;0.88;;;14.30;99.90;;;;;;5014831;28;20060;-51
2022/09/18 11:59:13;;;;;;;1.38;0.80;;;14.20;99.90;;;;;;5016079;28;20113;-48
2022/09/18 12:01:44;;;;;;;4.90;1.50;;;14.20;99.90;;;;;;5035308;22;20042;-47
2022/09/18 12:04:39;;;;;;;4.60;1.38;;;14.30;99.90;;;;;;5012483;28;20080;-50
2022/09/18 12:07:26;;;;;;;1.95;0.93;;;14.30;99.90;;;;;;5013319;28;20100;-48
2022/09/18 12:09:59;;;;;;;1.02;1.00;;;14.30;99.90;;;;;;5013439;28;20044;-49
2022/09/18 12:12:30;;;;;;;3.58;1.20;;;14.30;99.90;;;;;;5013418;28;20030;-47
2022/09/18 12:15:02;;;;;;;6.22;1.50;;;14.30;99.90;;;;;;5013173;28;20385;-48
2022/09/18 12:17:43;;;;;;;3.58;0.98;;;14.40;99.90;;;;;;5013352;28;20018;-50
2022/09/18 12:20:18;;;;;;;4.30;0.90;;;14.40;99.90;;;;;;5013409;28;20029;-45
2022/09/18 12:22:53;;;;;;;4.85;0.82;;;14.40;99.90;;;;;;5013092;28;20030;-46
2022/09/18 12:25:26;;;;;;;3.57;1.30;;;14.40;99.90;;;;;;5028658;28;20379;-48
2022/09/18 12:28:08;;;;;;;1.77;1.17;;;14.50;99.90;;;;;;5015011;28;20036;-53
2022/09/18 12:30:41;;;;;;;3.25;1.85;;;14.60;99.90;;;;;;5012926;28;20109;-50
2022/09/18 12:33:13;;;;;;;1.25;0.98;;;14.50;99.90;;;;;;5021865;28;20033;-56
2022/09/18 12:35:44;;;;;;;5.57;1.33;;;14.50;99.90;;;;;;5024236;28;20030;-45
2022/09/18 12:38:30;;;;;;;8.10;1.67;;;14.50;99.90;;;;;;5013173;28;20033;-46
2022/09/18 12:41:09;;;;;;;1.30;0.90;;;14.50;99.90;;;;;;5012702;28;20030;-50
2022/09/18 12:43:49;;;;;;;3.08;0.95;;;14.50;99.90;;;;;;5013086;28;20109;-50
2022/09/18 12:46:42;;;;;;;1.90;0.75;;;14.50;99.90;;;;;;5016302;28;20403;-50
2022/09/18 12:49:37;;;;;;;3.20;0.82;;;14.60;99.90;;;;;;5012862;28;20029;-54
2022/09/18 12:52:15;;;;;;;2.33;1.10;;;14.60;99.90;;;;;;5012201;28;20026;-49
2022/09/18 12:54:46;;;;;;;9.23;1.23;;;14.70;99.90;;;;;;5028265;28;20527;-48
2022/09/18 12:57:43;;;;;;;2.17;0.80;;;14.70;99.90;;;;;;5013125;28;20109;-47
2022/09/18 13:00:12;;;;;;;3.17;0.73;;;14.70;99.90;;;;;;5007900;28;20111;-52
2022/09/18 13:02:51;;;;;;;0.98;0.77;;;14.80;99.90;;;;;;5011486;28;20464;-54
2022/09/18 13:05:23;;;;;;;2.42;0.90;;;14.70;99.90;;;;;;5012363;28;20102;-55
2022/09/18 13:08:07;;;;;;;1.65;1.15;;;14.80;99.90;;;;;;5027684;28;20037;-52
2022/09/18 13:10:42;;;;;;;4.30;1.15;;;14.80;99.90;;;;;;5012470;28;20033;-52